createdAt,value
2022-10-15T00:04:53.394Z,57.10
2022-10-15T00:10:15.667Z,59.88
2022-10-15T00:15:38.192Z,55.98
2022-10-15T00:21:00.715Z,59.57
2022-10-15T00:26:38.331Z,54.87
2022-10-15T00:32:00.579Z,55.43
2022-10-15T00:37:23.173Z,61.27
2022-10-15T00:42:45.320Z,58.00
2022-10-15T00:48:08.121Z,62.27
2022-10-15T00:53:30.806Z,59.17
2022-10-15T00:58:53.967Z,58.20
2022-10-15T01:04:19.664Z,66.00
2022-10-15T01:09:43.461Z,60.23
2022-10-15T01:15:31.695Z,58.07
2022-10-15T01:21:35.802Z,63.20
2022-10-15T01:27:13.817Z,67.12
2022-10-15T01:32:43.023Z,60.10
2022-10-15T01:38:16.496Z,62.20
2022-10-15T01:43:52.301Z,64.17
2022-10-15T01:49:17.860Z,68.28
2022-10-15T01:54:42.220Z,61.40
2022-10-15T02:00:04.693Z,62.08
2022-10-15T02:05:33.890Z,62.60
2022-10-15T02:11:09.329Z,67.03
2022-10-15T02:16:42.374Z,64.40
2022-10-15T02:22:15.670Z,70.52
2022-10-15T02:27:40.223Z,66.77
2022-10-15T02:33:13.947Z,77.83
2022-10-15T02:38:38.468Z,75.97
2022-10-15T02:44:01.065Z,66.53
2022-10-15T02:49:23.982Z,71.30
2022-10-15T02:54:46.146Z,62.20
2022-10-15T03:00:09.980Z,65.80
2022-10-15T03:05:32.192Z,61.80
2022-10-15T03:10:55.516Z,66.90
2022-10-15T03:16:21.154Z,65.03
2022-10-15T03:21:43.751Z,68.47
2022-10-15T03:27:06.262Z,71.50
2022-10-15T03:32:29.681Z,65.20
2022-10-15T03:37:52.282Z,64.37
2022-10-15T03:43:14.429Z,63.60
2022-10-15T03:48:37.817Z,72.00
2022-10-15T03:54:00.020Z,70.92
2022-10-15T03:59:22.364Z,68.00
2022-10-15T04:04:44.515Z,65.63
2022-10-15T04:10:06.833Z,73.83
2022-10-15T04:15:30.028Z,69.30
2022-10-15T04:20:52.266Z,71.20
2022-10-15T04:26:16.090Z,71.63
2022-10-15T04:31:38.450Z,69.37
2022-10-15T04:37:00.705Z,69.43
2022-10-15T04:42:22.902Z,72.50
2022-10-15T04:47:45.120Z,68.42
2022-10-15T04:53:07.693Z,63.33
2022-10-15T04:58:29.848Z,65.07
2022-10-15T05:03:55.958Z,71.13
2022-10-15T05:09:18.174Z,62.55
2022-10-15T05:14:42.356Z,66.60
2022-10-15T05:20:04.493Z,58.73
2022-10-15T05:25:27.479Z,65.03
2022-10-15T05:30:50.670Z,65.67
2022-10-15T05:36:27.339Z,61.07
2022-10-15T05:41:49.924Z,61.80
2022-10-15T05:47:12.745Z,60.00
2022-10-15T05:52:34.921Z,60.90
2022-10-15T05:57:57.951Z,59.18
2022-10-15T06:03:22.613Z,56.98
2022-10-15T06:08:44.922Z,76.43
2022-10-15T06:14:07.762Z,88.62
2022-10-15T06:19:30.001Z,85.63
2022-10-15T06:24:52.154Z,77.37
2022-10-15T06:30:15.406Z,70.37
2022-10-15T06:35:40.766Z,64.45
2022-10-15T06:41:03.040Z,61.03
2022-10-15T06:46:25.166Z,66.47
2022-10-15T06:51:47.409Z,59.10
2022-10-15T06:57:09.829Z,60.63
2022-10-15T07:02:31.954Z,54.57
2022-10-15T07:08:00.792Z,61.00
2022-10-15T07:13:23.378Z,60.40
2022-10-15T07:18:46.466Z,55.88
2022-10-15T07:24:09.155Z,58.37
2022-10-15T07:29:31.956Z,56.18
2022-10-15T07:34:54.080Z,54.73
2022-10-15T07:40:16.697Z,54.30
2022-10-15T07:45:39.979Z,52.95
2022-10-15T07:51:10.828Z,53.60
2022-10-15T07:56:34.328Z,55.10
2022-10-15T08:01:56.720Z,53.75
2022-10-15T08:07:18.864Z,53.73
2022-10-15T08:12:41.031Z,49.73
2022-10-15T08:18:03.185Z,48.77
2022-10-15T08:23:29.403Z,45.40
2022-10-15T08:28:52.479Z,47.17
2022-10-15T08:34:16.063Z,50.00
2022-10-15T08:39:38.197Z,45.10
2022-10-15T08:45:07.052Z,53.80
2022-10-15T08:51:11.762Z,44.40
2022-10-15T08:56:37.786Z,49.18
2022-10-15T09:02:19.115Z,46.93
2022-10-15T09:07:58.428Z,44.00
2022-10-15T09:13:34.349Z,46.02
2022-10-15T09:18:58.872Z,42.70
2022-10-15T09:24:27.608Z,47.05
2022-10-15T09:30:07.261Z,40.07
2022-10-15T09:35:56.041Z,38.67
2022-10-15T09:41:52.391Z,38.73
2022-10-15T09:47:19.183Z,37.75
2022-10-15T09:53:11.946Z,47.08
2022-10-15T09:58:56.794Z,38.13
2022-10-15T10:04:33.332Z,40.00
2022-10-15T10:10:05.489Z,36.88
2022-10-15T10:15:38.137Z,39.20
2022-10-15T10:21:14.499Z,42.13
2022-10-15T10:26:38.880Z,46.00
2022-10-15T10:32:01.554Z,46.18
2022-10-15T10:37:25.332Z,41.57
2022-10-15T10:42:52.559Z,44.93
2022-10-15T10:48:33.523Z,43.90
2022-10-15T10:59:19.763Z,45.13
2022-10-15T11:04:45.498Z,50.73
2022-10-15T11:10:21.581Z,44.58
2022-10-15T11:16:16.753Z,43.80
2022-10-15T11:21:59.109Z,45.20
2022-10-15T11:27:41.384Z,40.40
2022-10-15T11:33:14.070Z,47.48
2022-10-15T11:39:23.485Z,48.07
2022-10-15T11:45:24.937Z,47.87
2022-10-15T11:51:19.785Z,49.53
2022-10-15T11:56:47.334Z,40.17
2022-10-15T12:02:14.820Z,39.40
2022-10-15T12:07:53.151Z,39.77
2022-10-15T12:13:44.286Z,41.30
2022-10-15T12:19:28.638Z,43.50
2022-10-15T12:25:00.092Z,41.90
2022-10-15T12:30:39.563Z,43.47
2022-10-15T12:36:11.095Z,48.57
2022-10-15T12:41:47.326Z,43.47
2022-10-15T12:47:10.318Z,40.83
2022-10-15T12:53:07.706Z,40.10
2022-10-15T12:59:00.846Z,42.73
2022-10-15T13:04:23.126Z,45.70
2022-10-15T13:09:49.714Z,38.57
2022-10-15T13:15:16.725Z,40.93
2022-10-15T13:20:57.125Z,37.70
2022-10-15T13:26:40.015Z,39.30
2022-10-15T13:32:04.366Z,38.83
2022-10-15T13:37:32.165Z,37.43
2022-10-15T13:43:09.929Z,34.73
2022-10-15T13:48:36.307Z,35.13
2022-10-15T13:54:01.859Z,33.35
2022-10-15T13:59:27.229Z,40.73
2022-10-15T14:04:51.055Z,41.15
2022-10-15T14:10:15.011Z,37.37
2022-10-15T14:16:07.805Z,36.97
2022-10-15T14:21:35.989Z,49.03
2022-10-15T14:26:59.179Z,39.48
2022-10-15T14:32:54.372Z,38.60
2022-10-15T14:38:25.729Z,39.73
2022-10-15T14:43:49.853Z,40.10
2022-10-15T14:49:13.868Z,39.73
2022-10-15T14:54:44.353Z,37.45
2022-10-15T15:00:10.192Z,35.45
2022-10-15T15:05:36.225Z,38.27
2022-10-15T15:11:01.218Z,36.20
2022-10-15T15:16:25.561Z,38.58
2022-10-15T15:21:48.157Z,37.05
2022-10-15T15:27:10.377Z,32.80
2022-10-15T15:32:33.583Z,36.65
2022-10-15T15:37:55.874Z,33.92
2022-10-15T15:43:22.763Z,35.30
2022-10-15T15:48:45.112Z,37.40
2022-10-15T15:54:10.284Z,40.67
2022-10-15T15:59:32.770Z,40.45
2022-10-15T16:04:55.811Z,30.55
2022-10-15T16:10:19.057Z,43.95
2022-10-15T16:15:43.411Z,32.85
2022-10-15T16:21:06.913Z,34.92
2022-10-15T16:26:30.012Z,33.75
2022-10-15T16:31:52.204Z,33.80
2022-10-15T16:37:14.732Z,33.15
2022-10-15T16:42:37.424Z,29.00
2022-10-15T16:48:00.754Z,34.53
2022-10-15T16:53:23.796Z,28.80
2022-10-15T16:58:46.828Z,31.42
2022-10-15T17:04:13.605Z,29.87
2022-10-15T17:09:36.195Z,35.52
2022-10-15T17:15:02.465Z,30.85
2022-10-15T17:20:28.539Z,32.20
2022-10-15T17:25:50.759Z,32.13
2022-10-15T17:31:19.202Z,30.55
2022-10-15T17:36:45.814Z,32.78
2022-10-15T17:42:09.760Z,33.97
2022-10-15T17:47:32.570Z,32.28
2022-10-15T17:52:57.000Z,29.63
2022-10-15T17:58:20.554Z,30.25
2022-10-15T18:03:44.425Z,28.23
2022-10-15T18:09:08.001Z,32.98
2022-10-15T18:14:31.054Z,31.65
2022-10-15T18:19:53.217Z,28.70
2022-10-15T18:25:15.712Z,31.42
2022-10-15T18:30:38.779Z,40.40
2022-10-15T18:36:00.976Z,35.48
2022-10-15T18:41:28.348Z,33.15
2022-10-15T18:46:52.129Z,37.50
2022-10-15T18:52:21.935Z,36.00
2022-10-15T18:57:39.978Z,37.50
2022-10-15T19:03:02.142Z,36.68
2022-10-15T19:08:24.361Z,34.20
2022-10-15T19:13:47.278Z,35.77
2022-10-15T19:19:09.584Z,34.53
2022-10-15T19:24:33.362Z,35.97
2022-10-15T19:29:56.879Z,40.65
2022-10-15T19:35:19.282Z,32.58
2022-10-15T19:40:48.678Z,40.77
2022-10-15T19:46:10.060Z,39.20
2022-10-15T19:51:32.350Z,49.33
2022-10-15T19:56:55.372Z,47.63
2022-10-15T20:02:18.680Z,47.20
2022-10-15T20:07:41.273Z,48.00
2022-10-15T20:13:03.432Z,44.73
2022-10-15T20:18:26.703Z,42.07
2022-10-15T20:23:50.412Z,39.27
2022-10-15T20:29:14.240Z,46.00
2022-10-15T20:34:40.135Z,41.60
2022-10-15T20:40:03.116Z,47.67
2022-10-15T20:45:27.456Z,49.07
2022-10-15T20:50:51.192Z,47.48
2022-10-15T20:56:13.929Z,45.78
2022-10-15T21:01:36.102Z,41.60
2022-10-15T21:06:58.855Z,40.03
2022-10-15T21:12:21.000Z,39.07
2022-10-15T21:17:43.263Z,43.77
2022-10-15T21:23:06.423Z,41.30
2022-10-15T21:28:28.643Z,43.30
2022-10-15T21:33:51.666Z,40.17
2022-10-15T21:39:16.998Z,46.05
2022-10-15T21:44:39.156Z,43.83
2022-10-15T21:50:01.419Z,44.10
2022-10-15T21:55:27.130Z,50.53
2022-10-15T22:00:47.735Z,47.67
2022-10-15T22:06:11.393Z,49.67
2022-10-15T22:11:43.956Z,42.38
2022-10-15T22:17:06.110Z,45.25
2022-10-15T22:22:28.592Z,42.60
2022-10-15T22:27:51.646Z,47.45
2022-10-15T22:33:14.316Z,46.28
2022-10-15T22:38:36.515Z,43.80
2022-10-15T22:43:59.228Z,40.70
2022-10-15T22:49:24.164Z,42.73
2022-10-15T22:54:46.379Z,43.08
2022-10-15T23:00:10.455Z,42.67
2022-10-15T23:05:32.680Z,52.67
2022-10-15T23:10:54.913Z,39.38
2022-10-15T23:16:36.944Z,44.58
2022-10-15T23:22:07.840Z,44.40
2022-10-15T23:27:30.950Z,43.15
2022-10-15T23:32:53.534Z,46.92
2022-10-15T23:38:16.125Z,42.80
2022-10-15T23:43:38.640Z,41.77
2022-10-15T23:49:00.850Z,45.67
2022-10-15T23:54:25.399Z,48.10
2022-10-15T23:59:47.920Z,44.27
